createdAt,value
2019-04-23T00:11:18.851Z,79.6
2019-04-23T00:16:24.688Z,79.5
2019-04-23T00:21:32.928Z,79.7
2019-04-23T00:32:14.956Z,80
2019-04-23T00:46:21.980Z,80.9
2019-04-23T00:51:58.173Z,81.3
2019-04-23T01:01:55.601Z,81.4
2019-04-23T01:07:04.139Z,81.3
2019-04-23T01:12:05.623Z,81.7
2019-04-23T01:17:38.991Z,81.8
2019-04-23T01:22:00.025Z,82.4
2019-04-23T01:29:12.438Z,82.8
2019-04-23T01:34:24.110Z,83.1
2019-04-23T01:39:06.049Z,82.9
2019-04-23T01:44:13.601Z,83.1
2019-04-23T01:49:20.326Z,84.3
2019-04-23T01:54:36.891Z,83.6
2019-04-23T02:00:01.424Z,83.8
2019-04-23T02:05:00.942Z,84
2019-04-23T02:09:55.125Z,84
2019-04-23T02:15:11.046Z,84.1
2019-04-23T02:20:15.733Z,84.2
2019-04-23T02:25:31.510Z,84.1
2019-04-23T02:41:03.478Z,84.8
2019-04-23T02:46:01.321Z,84.9
2019-04-23T02:56:30.346Z,85.1
2019-04-23T03:16:26.739Z,85.4
2019-04-23T03:21:51.373Z,85.5
2019-04-23T03:47:37.053Z,86.5
2019-04-23T03:57:24.375Z,85.5
2019-04-23T04:02:30.466Z,86.5
2019-04-23T04:07:18.238Z,85.6
2019-04-23T04:12:12.130Z,85.7
2019-04-23T04:22:36.883Z,85.1
2019-04-23T04:27:44.833Z,84.2
2019-04-23T04:32:28.755Z,83.2
2019-04-23T04:38:24.729Z,81.9
2019-04-23T04:42:54.119Z,80.9
2019-04-23T04:58:02.622Z,77.3
2019-04-23T05:03:23.537Z,76.2
2019-04-23T05:07:47.215Z,74.2
2019-04-23T05:12:35.639Z,73.6
2019-04-23T05:18:07.234Z,72.9
2019-04-23T05:22:59.276Z,71.2
2019-04-23T05:28:07.441Z,69.6
2019-04-23T05:32:48.523Z,67.4
2019-04-23T05:42:57.596Z,64.2
2019-04-23T05:48:17.332Z,63.5
2019-04-23T05:53:18.197Z,62.6
2019-04-23T05:58:08.424Z,61.8
2019-04-23T06:08:38.261Z,60.8
2019-04-23T06:13:25.842Z,60
2019-04-23T06:19:06.897Z,59.1
2019-04-23T06:23:57.762Z,59.1
2019-04-23T06:29:04.779Z,58.9
2019-04-23T06:33:53.715Z,59.3
2019-04-23T06:39:54.673Z,59.3
2019-04-23T06:44:44.820Z,58.8
2019-04-23T06:49:36.849Z,56.9
2019-04-23T06:54:11.645Z,54.7
2019-04-23T06:59:35.116Z,54.2
2019-04-23T07:04:49.473Z,53.9
2019-04-23T07:09:38.464Z,53.9
2019-04-23T07:14:48.843Z,54.4
2019-04-23T07:19:54.547Z,54.9
2019-04-23T07:25:12.682Z,55.3
2019-04-23T07:30:38.092Z,56.3
2019-04-23T07:35:30.026Z,57.3
2019-04-23T07:40:30.966Z,58.9
2019-04-23T07:50:42.246Z,60.4
2019-04-23T07:56:07.015Z,60.6
2019-04-23T08:00:48.538Z,60.8
2019-04-23T08:05:48.883Z,62.3
2019-04-23T08:11:14.059Z,63.1
2019-04-23T08:16:33.475Z,63.3
2019-04-23T08:21:09.671Z,63.1
2019-04-23T08:29:59.842Z,61.6
2019-04-23T08:35:19.320Z,62.5
2019-04-23T08:39:51.924Z,63.7
2019-04-23T08:50:21.391Z,65.4
2019-04-23T08:55:32.043Z,65.2
2019-04-23T09:01:14.398Z,65.3
2019-04-23T09:10:40.772Z,66.8
2019-04-23T09:15:38.678Z,67.7
2019-04-23T09:21:13.884Z,69
2019-04-23T09:25:53.364Z,69.9
2019-04-23T09:30:48.628Z,75.1
2019-04-23T09:36:06.284Z,76.2
2019-04-23T09:46:35.839Z,77.7
2019-04-23T09:51:17.129Z,80.3
2019-04-23T09:56:13.949Z,81.4
2019-04-23T10:01:25.686Z,83.2
2019-04-23T10:05:28.654Z,84.7
2019-04-23T10:09:32.099Z,86.8
2019-04-23T10:14:32.451Z,89.5
2019-04-23T10:19:40.455Z,91.3
2019-04-23T10:24:48.667Z,90.5
2019-04-23T10:29:57.012Z,91.5
2019-04-23T10:35:48.891Z,91.6
2019-04-23T10:40:32.078Z,91.7
2019-04-23T10:46:36.231Z,91.1
2019-04-23T10:52:25.425Z,91.5
2019-04-23T10:57:30.693Z,91.3
2019-04-23T11:07:33.766Z,91.4
2019-04-23T11:12:48.239Z,90.8
2019-04-23T11:18:08.616Z,90.8
2019-04-23T11:28:25.562Z,88.2
2019-04-23T11:33:37.768Z,87.9
2019-04-23T11:38:33.859Z,86.3
2019-04-23T11:43:26.743Z,85.4
2019-04-23T11:53:33.698Z,82
2019-04-23T12:03:26.283Z,82
2019-04-23T12:13:50.988Z,79.1
2019-04-23T12:19:21.218Z,79.3
2019-04-23T12:24:13.523Z,77.9
2019-04-23T12:29:26.855Z,77.8
2019-04-23T12:34:34.138Z,78.3
2019-04-23T12:39:10.919Z,78.5
2019-04-23T12:44:14.516Z,78.3
2019-04-23T12:49:52.631Z,79.4
2019-04-23T12:54:05.633Z,78.5
2019-04-23T12:58:54.563Z,77.1
2019-04-23T13:04:17.708Z,76.4
2019-04-23T13:09:57.507Z,75.2
2019-04-23T13:14:55.366Z,73.9
2019-04-23T13:19:47.250Z,73.4
2019-04-23T13:24:48.257Z,72.4
2019-04-23T13:29:56.358Z,71.7
2019-04-23T13:34:56.044Z,70.9
2019-04-23T13:40:06.670Z,70.2
2019-04-23T13:45:15.671Z,70.6
2019-04-23T13:50:15.306Z,69.4
2019-04-23T13:55:26.488Z,69.3
2019-04-23T14:00:24.531Z,69.1
2019-04-23T14:10:16.779Z,68.1
2019-04-23T14:20:31.435Z,67.4
2019-04-23T14:26:15.422Z,67
2019-04-23T14:41:22.625Z,65.4
2019-04-23T14:46:57.684Z,65.1
2019-04-23T14:52:21.079Z,64.9
2019-04-23T14:57:15.534Z,64.7
2019-04-23T15:01:37.882Z,64.5
2019-04-23T15:07:15.186Z,64.6
2019-04-23T15:12:29.503Z,64.7
2019-04-23T15:17:05.334Z,64.8
2019-04-23T15:22:19.384Z,65.1
2019-04-23T15:38:17.863Z,66
2019-04-23T15:42:39.573Z,66
2019-04-23T15:52:55.930Z,66.5
2019-04-23T15:58:12.804Z,66.8
2019-04-23T16:01:46.205Z,67.4
2019-04-23T16:05:46.792Z,68.1
2019-04-23T16:13:02.061Z,68.3
2019-04-23T16:18:20.103Z,70.2
2019-04-23T16:23:03.104Z,72.9
2019-04-23T16:28:01.959Z,72.5
2019-04-23T16:33:15.138Z,74.5
2019-04-23T16:48:39.635Z,75
2019-04-23T16:53:28.244Z,75.7
2019-04-23T16:58:56.550Z,76.1
2019-04-23T17:04:09.599Z,76.3
2019-04-23T17:09:23.989Z,76.2
2019-04-23T17:14:29.093Z,75.7
2019-04-23T17:24:28.753Z,74.7
2019-04-23T17:29:47.293Z,74.9
2019-04-23T17:35:04.540Z,75.3
2019-04-23T17:40:12.033Z,75
2019-04-23T17:49:49.914Z,75.6
2019-04-23T17:55:14.647Z,76
2019-04-23T18:05:23.367Z,76.6
2019-04-23T18:15:15.399Z,77.8
2019-04-23T18:20:28.056Z,78.5
2019-04-23T18:25:41.643Z,78.4
2019-04-23T18:30:48.508Z,78.6
2019-04-23T18:35:56.425Z,78.9
2019-04-23T18:40:53.930Z,78.9
2019-04-23T18:46:22.512Z,77.7
2019-04-23T18:51:04.916Z,77.1
2019-04-23T18:56:22.952Z,76.8
2019-04-23T18:59:50.398Z,76.4
2019-04-23T19:05:06.817Z,76.5
2019-04-23T19:10:15.456Z,77.7
2019-04-23T19:14:55.615Z,77.6
2019-04-23T19:19:54.845Z,77.6
2019-04-23T19:25:00.772Z,75.9
2019-04-23T19:30:11.404Z,74
2019-04-23T19:35:39.709Z,73.8
2019-04-23T19:39:59.984Z,74
2019-04-23T19:45:59.506Z,74
2019-04-23T19:50:22.071Z,73.6
2019-04-23T19:55:15.833Z,73.5
2019-04-23T20:00:55.113Z,74.1
2019-04-23T20:05:20.739Z,75.7
2019-04-23T20:10:54.151Z,77.8
2019-04-23T20:15:47.433Z,80.2
2019-04-23T20:28:01.050Z,80.2
2019-04-23T20:42:23.982Z,88.6
2019-04-23T20:51:59.786Z,89.8
2019-04-23T20:57:09.833Z,91.3
2019-04-23T21:02:13.326Z,91.1
2019-04-23T21:06:48.338Z,90.9
2019-04-23T21:12:02.847Z,90.7
2019-04-23T21:17:51.131Z,90.8
2019-04-23T21:22:43.492Z,90.2
2019-04-23T21:27:36.924Z,89.6
2019-04-23T21:32:55.530Z,90.4
2019-04-23T21:37:49.311Z,89.1
2019-04-23T21:48:25.534Z,90
2019-04-23T21:53:14.063Z,90.1
2019-04-23T21:58:06.567Z,89.3
2019-04-23T22:03:07.699Z,89.3
2019-04-23T22:08:14.012Z,89.3
2019-04-23T22:13:27.299Z,89.2
2019-04-23T22:18:56.909Z,87.2
2019-04-23T22:23:38.243Z,86.6
2019-04-23T22:28:37.599Z,86
2019-04-23T22:34:01.312Z,85.1
2019-04-23T22:39:02.894Z,84.5
2019-04-23T22:44:28.031Z,84.7
2019-04-23T22:48:56.996Z,84
2019-04-23T22:53:57.293Z,84.9
2019-04-23T22:59:01.264Z,83.3
2019-04-23T23:04:12.962Z,83.6
2019-04-23T23:14:25.918Z,82.1
2019-04-23T23:19:59.079Z,82.1
2019-04-23T23:24:45.729Z,81.9
2019-04-23T23:29:38.974Z,81.8
2019-04-23T23:35:00.598Z,82
2019-04-23T23:45:18.195Z,81.5
2019-04-23T23:50:00.653Z,81.9
